ESOK 170320Z AUTO 21007KT 4800 BR FEW003/// OVC005/// 11/11 Q1016